createdAt,value
2018-06-15T00:00:01.007Z,17.00
2018-06-15T00:02:30.471Z,16.80
2018-06-15T00:04:57.595Z,16.80
2018-06-15T00:07:32.472Z,16.60
2018-06-15T00:10:00.454Z,16.70
2018-06-15T00:12:27.674Z,16.70
2018-06-15T00:14:54.992Z,16.80
2018-06-15T00:17:22.191Z,16.50
2018-06-15T00:19:49.342Z,16.50
2018-06-15T00:22:16.528Z,16.60
2018-06-15T00:24:43.723Z,16.70
2018-06-15T00:27:10.868Z,16.70
2018-06-15T00:29:38.029Z,16.70
2018-06-15T00:32:05.189Z,16.70
2018-06-15T00:34:32.360Z,16.70
2018-06-15T00:36:59.627Z,16.80
2018-06-15T00:39:26.948Z,16.90
2018-06-15T00:41:54.096Z,17.00
2018-06-15T00:44:21.271Z,17.00
2018-06-15T00:46:48.488Z,17.10
2018-06-15T00:49:15.638Z,17.10
2018-06-15T00:51:42.830Z,17.10
2018-06-15T00:54:09.979Z,17.20
2018-06-15T00:56:48.813Z,17.20
2018-06-15T00:59:15.972Z,17.20
2018-06-15T01:01:43.560Z,17.20
2018-06-15T01:04:10.738Z,17.20
2018-06-15T01:06:37.983Z,17.20
2018-06-15T01:09:06.508Z,17.20
2018-06-15T01:11:33.812Z,17.20
2018-06-15T01:14:00.943Z,17.20
2018-06-15T01:16:28.096Z,17.10
2018-06-15T01:18:55.264Z,17.00
2018-06-15T01:21:22.795Z,17.10
2018-06-15T01:23:49.933Z,17.10
2018-06-15T01:26:17.067Z,17.10
2018-06-15T01:28:44.187Z,17.20
2018-06-15T01:31:11.978Z,17.20
2018-06-15T01:33:39.128Z,17.20
2018-06-15T01:36:06.251Z,17.20
2018-06-15T01:38:33.412Z,17.20
2018-06-15T01:41:00.540Z,17.20
2018-06-15T01:43:31.020Z,17.20
2018-06-15T01:45:58.148Z,17.20
2018-06-15T01:48:25.444Z,17.20
2018-06-15T01:50:52.571Z,17.20
2018-06-15T01:53:19.716Z,17.10
2018-06-15T01:55:47.032Z,17.10
2018-06-15T01:58:14.181Z,17.10
2018-06-15T02:00:41.375Z,17.00
2018-06-15T02:03:10.024Z,17.10
2018-06-15T02:05:37.204Z,17.10
2018-06-15T02:08:04.490Z,17.10
2018-06-15T02:10:31.620Z,17.10
2018-06-15T02:12:58.823Z,17.00
2018-06-15T02:15:26.096Z,17.00
2018-06-15T02:17:53.311Z,17.00
2018-06-15T02:20:20.604Z,17.10
2018-06-15T02:22:48.108Z,17.10
2018-06-15T02:25:15.344Z,17.10
2018-06-15T02:27:42.597Z,17.20
2018-06-15T02:30:09.864Z,17.20
2018-06-15T02:32:37.136Z,17.30
2018-06-15T02:35:04.479Z,17.30
2018-06-15T02:37:31.723Z,17.30
2018-06-15T02:39:59.003Z,17.30
2018-06-15T02:42:26.338Z,17.30
2018-06-15T02:44:53.887Z,17.30
2018-06-15T02:47:21.153Z,17.40
2018-06-15T02:49:48.400Z,17.30
2018-06-15T02:52:15.669Z,17.30
2018-06-15T02:54:42.961Z,17.20
2018-06-15T02:59:37.605Z,17.20
2018-06-15T03:02:05.159Z,17.20
2018-06-15T03:04:33.765Z,17.10
2018-06-15T03:07:01.012Z,17.30
2018-06-15T03:09:28.333Z,17.20
2018-06-15T03:11:55.593Z,17.30
2018-06-15T03:14:22.874Z,17.30
2018-06-15T03:16:50.236Z,17.30
2018-06-15T03:19:17.597Z,17.30
2018-06-15T03:21:45.249Z,17.30
2018-06-15T03:24:12.477Z,17.30
2018-06-15T03:26:39.716Z,17.40
2018-06-15T03:29:07.489Z,17.40
2018-06-15T03:31:34.735Z,17.40
2018-06-15T03:34:02.323Z,17.30
2018-06-15T03:36:29.651Z,17.30
2018-06-15T03:38:57.196Z,17.30
2018-06-15T03:41:24.463Z,17.40
2018-06-15T03:43:51.868Z,17.30
2018-06-15T03:46:19.132Z,17.30
2018-06-15T03:51:13.606Z,17.20
2018-06-15T03:53:40.867Z,17.20
2018-06-15T03:56:08.389Z,17.20
2018-06-15T03:58:35.734Z,17.10
2018-06-15T04:01:03.110Z,17.10
2018-06-15T04:03:30.387Z,17.20
2018-06-15T04:05:57.641Z,17.30
2018-06-15T04:08:25.188Z,17.30
2018-06-15T04:10:52.446Z,17.30
2018-06-15T04:13:19.963Z,17.30
2018-06-15T04:18:14.584Z,17.40
2018-06-15T04:20:41.836Z,17.30
2018-06-15T04:23:09.086Z,17.40
2018-06-15T04:25:36.343Z,17.30
2018-06-15T04:28:03.739Z,17.40
2018-06-15T04:30:31.055Z,17.40
2018-06-15T04:32:58.312Z,17.50
2018-06-15T04:35:26.156Z,17.50
2018-06-15T04:37:53.480Z,17.40
2018-06-15T04:40:20.780Z,17.50
2018-06-15T04:42:48.027Z,17.60
2018-06-15T04:45:15.312Z,17.60
2018-06-15T04:47:42.587Z,17.70
2018-06-15T04:50:09.837Z,17.90
2018-06-15T04:52:37.224Z,17.70
2018-06-15T04:55:04.930Z,17.80
2018-06-15T04:57:32.167Z,17.80
2018-06-15T04:59:59.866Z,17.90
2018-06-15T05:02:27.459Z,17.90
2018-06-15T05:04:54.755Z,17.90
2018-06-15T05:07:22.028Z,18.00
2018-06-15T05:09:49.415Z,17.90
2018-06-15T05:12:16.745Z,18.00
2018-06-15T05:14:43.984Z,18.00
2018-06-15T05:17:11.405Z,18.10
2018-06-15T05:19:38.678Z,18.10
2018-06-15T05:22:06.038Z,18.10
2018-06-15T05:24:33.525Z,18.10
2018-06-15T05:27:00.901Z,18.10
2018-06-15T05:29:28.150Z,18.20
2018-06-15T05:31:55.544Z,18.30
2018-06-15T05:34:22.923Z,18.30
2018-06-15T05:36:50.212Z,18.40
2018-06-15T05:39:17.483Z,18.40
2018-06-15T05:41:44.812Z,18.50
2018-06-15T05:44:12.058Z,18.50
2018-06-15T05:46:39.378Z,18.60
2018-06-15T05:49:06.641Z,18.70
2018-06-15T05:51:33.888Z,18.70
2018-06-15T05:54:01.165Z,18.70
2018-06-15T05:56:28.428Z,18.60
2018-06-15T05:58:55.763Z,18.70
2018-06-15T06:01:23.016Z,18.70
2018-06-15T06:03:50.310Z,18.70
2018-06-15T06:06:17.619Z,18.60
2018-06-15T06:08:44.875Z,18.60
2018-06-15T06:11:16.242Z,18.60
2018-06-15T06:13:43.737Z,18.60
2018-06-15T06:16:12.753Z,18.60
2018-06-15T06:18:40.176Z,18.70
2018-06-15T06:21:20.500Z,18.70
2018-06-15T06:23:47.747Z,18.90
2018-06-15T06:26:15.111Z,19.00
2018-06-15T06:28:42.393Z,19.00
2018-06-15T06:31:09.687Z,19.00
2018-06-15T06:33:36.948Z,19.10
2018-06-15T06:36:04.332Z,19.10
2018-06-15T06:38:31.671Z,19.10
2018-06-15T06:43:27.072Z,19.10
2018-06-15T06:45:55.590Z,19.10
2018-06-15T06:48:23.208Z,19.20
2018-06-15T06:50:50.910Z,19.10
2018-06-15T06:53:18.470Z,19.00
2018-06-15T06:55:46.019Z,19.00
2018-06-15T06:58:13.499Z,19.00
2018-06-15T07:00:40.993Z,19.00
2018-06-15T07:03:08.467Z,19.00
2018-06-15T07:05:35.943Z,19.00
2018-06-15T07:08:03.452Z,19.00
2018-06-15T07:10:30.938Z,19.10
2018-06-15T07:12:58.574Z,19.00
2018-06-15T07:15:26.062Z,19.10
2018-06-15T07:17:53.514Z,19.20
2018-06-15T07:20:21.299Z,19.50
2018-06-15T07:22:48.776Z,19.60
2018-06-15T07:25:16.796Z,19.80
2018-06-15T07:27:44.372Z,19.90
2018-06-15T07:30:11.850Z,19.90
2018-06-15T07:32:39.367Z,20.00
2018-06-15T07:35:06.856Z,20.00
2018-06-15T07:37:34.795Z,20.20
2018-06-15T07:40:02.294Z,20.30
2018-06-15T07:42:29.954Z,20.30
2018-06-15T07:44:57.451Z,20.30
2018-06-15T07:47:24.932Z,20.40
2018-06-15T07:49:52.487Z,20.40
2018-06-15T07:54:47.423Z,20.40
2018-06-15T07:57:14.888Z,20.40
2018-06-15T07:59:45.476Z,20.30
2018-06-15T08:02:12.951Z,20.30
2018-06-15T08:04:40.387Z,20.40
2018-06-15T08:07:13.695Z,20.50
2018-06-15T08:09:41.272Z,20.60
2018-06-15T08:12:13.463Z,20.60
2018-06-15T08:14:40.920Z,20.70
2018-06-15T08:17:08.349Z,20.70
2018-06-15T08:19:35.827Z,20.90
2018-06-15T08:22:03.412Z,20.90
2018-06-15T08:24:35.817Z,20.90
2018-06-15T08:27:03.560Z,20.80
2018-06-15T08:29:31.015Z,20.90
2018-06-15T08:31:58.628Z,21.00
2018-06-15T08:34:26.080Z,21.10
2018-06-15T08:36:58.552Z,21.10
2018-06-15T08:39:26.045Z,21.20
2018-06-15T08:41:53.538Z,21.20
2018-06-15T08:44:20.977Z,21.20
2018-06-15T08:46:48.506Z,21.30
2018-06-15T08:49:15.978Z,21.40
2018-06-15T08:51:47.801Z,21.50
2018-06-15T08:54:15.247Z,21.60
2018-06-15T08:56:42.719Z,21.80
2018-06-15T08:59:10.179Z,21.90
2018-06-15T09:01:37.678Z,22.00
2018-06-15T09:04:07.703Z,21.90
2018-06-15T09:06:36.784Z,21.70
2018-06-15T09:09:06.272Z,21.70
2018-06-15T09:11:33.804Z,21.50
2018-06-15T09:14:01.283Z,21.60
2018-06-15T09:16:28.784Z,21.80
2018-06-15T09:19:00.189Z,21.90
2018-06-15T09:23:55.217Z,21.80
2018-06-15T09:26:22.671Z,21.80
2018-06-15T09:28:50.111Z,21.80
2018-06-15T09:31:17.553Z,21.90
2018-06-15T09:33:47.851Z,21.80
2018-06-15T09:36:15.315Z,21.80
2018-06-15T09:41:10.535Z,21.70
2018-06-15T09:43:38.018Z,21.60
2018-06-15T09:46:05.544Z,21.50
2018-06-15T09:48:40.313Z,21.80
2018-06-15T09:51:07.806Z,21.90
2018-06-15T09:53:36.030Z,22.10
2018-06-15T09:56:03.964Z,22.20
2018-06-15T09:58:35.869Z,22.20
2018-06-15T10:01:09.490Z,22.00
2018-06-15T10:03:37.888Z,22.20
2018-06-15T10:06:05.511Z,22.50
2018-06-15T10:08:33.655Z,22.50
2018-06-15T10:11:03.134Z,22.80
2018-06-15T10:13:30.604Z,23.10
2018-06-15T10:15:58.004Z,23.40
2018-06-15T10:18:25.438Z,23.60
2018-06-15T10:20:52.852Z,24.10
2018-06-15T10:23:20.739Z,24.20
2018-06-15T10:25:50.874Z,24.60
2018-06-15T10:28:18.343Z,24.70
2018-06-15T10:30:45.791Z,24.90
2018-06-15T10:33:13.452Z,25.30
2018-06-15T10:35:40.980Z,25.50
2018-06-15T10:38:08.748Z,25.50
2018-06-15T10:40:38.135Z,25.50
2018-06-15T10:43:10.403Z,25.70
2018-06-15T10:45:37.852Z,25.80
2018-06-15T10:48:05.199Z,25.70
2018-06-15T10:50:32.668Z,25.40
2018-06-15T10:53:02.796Z,25.60
2018-06-15T10:55:30.256Z,25.90
2018-06-15T10:57:57.644Z,26.10
2018-06-15T11:00:25.175Z,26.20
2018-06-15T11:02:52.616Z,26.40
2018-06-15T11:05:20.123Z,26.70
2018-06-15T11:07:52.460Z,26.70
2018-06-15T11:10:19.997Z,26.50
2018-06-15T11:12:47.449Z,26.50
2018-06-15T11:15:14.847Z,26.50
2018-06-15T11:17:42.387Z,26.20
2018-06-15T11:20:09.755Z,25.90
2018-06-15T11:22:38.523Z,25.60
2018-06-15T11:25:06.031Z,25.40
2018-06-15T11:27:33.469Z,25.00
2018-06-15T11:30:00.938Z,24.90
2018-06-15T11:32:28.532Z,25.00
2018-06-15T11:34:59.488Z,25.20
2018-06-15T11:37:26.864Z,25.50
2018-06-15T11:39:54.159Z,25.60
2018-06-15T11:42:21.422Z,25.90
2018-06-15T11:47:15.891Z,26.40
2018-06-15T11:49:46.807Z,26.60
2018-06-15T11:52:14.044Z,26.50
2018-06-15T11:54:41.284Z,26.10
2018-06-15T11:57:08.535Z,25.90
2018-06-15T11:59:35.827Z,25.60
2018-06-15T12:02:03.283Z,25.10
2018-06-15T12:04:32.100Z,24.60
2018-06-15T12:06:59.390Z,24.60
2018-06-15T12:09:26.636Z,24.70
2018-06-15T12:11:53.880Z,25.30
2018-06-15T12:14:21.141Z,25.60
2018-06-15T12:16:48.543Z,25.90
2018-06-15T12:19:16.919Z,26.20
2018-06-15T12:21:44.322Z,26.10
2018-06-15T12:24:11.686Z,26.20
2018-06-15T12:26:38.949Z,26.60
2018-06-15T12:29:06.799Z,26.50
2018-06-15T12:31:37.939Z,25.90
2018-06-15T12:34:06.270Z,25.70
2018-06-15T12:36:33.527Z,25.30
2018-06-15T12:39:01.086Z,25.00
2018-06-15T12:41:28.339Z,24.90
2018-06-15T12:43:55.580Z,24.90
2018-06-15T12:46:25.855Z,25.20
2018-06-15T12:48:53.095Z,25.60
2018-06-15T12:53:47.695Z,26.10
2018-06-15T12:56:15.130Z,26.50
2018-06-15T12:58:42.459Z,26.70
2018-06-15T13:01:10.979Z,26.50
2018-06-15T13:03:38.296Z,26.50
2018-06-15T13:06:05.615Z,26.80
2018-06-15T13:08:32.867Z,27.00
2018-06-15T13:11:00.195Z,26.80
2018-06-15T13:13:27.847Z,26.50
2018-06-15T13:15:55.132Z,25.90
2018-06-15T13:18:22.431Z,26.00
2018-06-15T13:20:49.807Z,26.30
2018-06-15T13:23:17.086Z,26.50
2018-06-15T13:25:44.404Z,26.70
2018-06-15T13:28:15.203Z,27.00
2018-06-15T13:30:42.445Z,27.10
2018-06-15T13:33:09.772Z,27.30
2018-06-15T13:35:37.107Z,27.30
2018-06-15T13:38:04.832Z,27.40
2018-06-15T13:40:32.056Z,27.60
2018-06-15T13:42:59.327Z,27.80
2018-06-15T13:45:29.560Z,27.90
2018-06-15T13:47:56.791Z,27.90
2018-06-15T13:50:24.041Z,28.00
2018-06-15T13:52:51.570Z,28.10
2018-06-15T13:55:18.862Z,28.30
2018-06-15T13:57:49.080Z,28.00
2018-06-15T14:00:17.719Z,27.80
2018-06-15T14:02:46.419Z,27.70
2018-06-15T14:05:13.668Z,27.90
2018-06-15T14:07:40.959Z,27.90
2018-06-15T14:10:08.224Z,27.90
2018-06-15T14:12:37.267Z,28.10
2018-06-15T14:15:04.908Z,28.10
2018-06-15T14:17:32.203Z,27.70
2018-06-15T14:19:59.496Z,27.90
2018-06-15T14:22:27.174Z,28.00
2018-06-15T14:24:59.374Z,28.10
2018-06-15T14:27:26.710Z,27.90
2018-06-15T14:29:53.937Z,27.70
2018-06-15T14:32:21.207Z,27.50
2018-06-15T14:34:48.545Z,27.50
2018-06-15T14:37:15.877Z,27.60
2018-06-15T14:39:47.717Z,27.60
2018-06-15T14:42:15.043Z,27.70
2018-06-15T14:44:42.321Z,27.80
2018-06-15T14:47:09.547Z,27.70
2018-06-15T14:49:36.780Z,27.70
2018-06-15T14:52:04.261Z,27.80
2018-06-15T14:54:36.358Z,27.60
2018-06-15T14:57:03.683Z,27.50
2018-06-15T14:59:31.188Z,27.30
2018-06-15T15:01:58.466Z,27.50
2018-06-15T15:04:25.792Z,27.40
2018-06-15T15:06:57.964Z,27.40
2018-06-15T15:09:25.207Z,27.40
2018-06-15T15:11:52.497Z,27.30
2018-06-15T15:14:19.873Z,27.20
2018-06-15T15:16:47.299Z,27.30
2018-06-15T15:19:14.640Z,27.30
2018-06-15T15:21:46.604Z,27.50
2018-06-15T15:24:13.906Z,27.70
2018-06-15T15:26:41.171Z,27.70
2018-06-15T15:29:08.471Z,27.60
2018-06-15T15:31:35.693Z,27.50
2018-06-15T15:36:35.107Z,27.30
2018-06-15T15:39:02.457Z,27.30
2018-06-15T15:41:29.710Z,27.20
2018-06-15T15:43:56.924Z,27.30
2018-06-15T15:46:24.223Z,27.30
2018-06-15T15:48:51.644Z,27.20
2018-06-15T15:51:23.251Z,27.30
2018-06-15T15:53:50.495Z,27.10
2018-06-15T15:56:17.711Z,27.10
2018-06-15T15:58:45.014Z,27.00
2018-06-15T16:01:12.276Z,26.80
2018-06-15T16:03:39.519Z,26.80
2018-06-15T16:06:11.479Z,26.80
2018-06-15T16:08:38.804Z,26.90
2018-06-15T16:11:06.107Z,26.60
2018-06-15T16:13:33.407Z,26.40
2018-06-15T16:16:00.784Z,26.30
2018-06-15T16:18:30.173Z,26.10
2018-06-15T16:21:00.046Z,26.00
2018-06-15T16:23:27.335Z,25.80
2018-06-15T16:25:54.580Z,25.80
2018-06-15T16:28:21.804Z,26.00
2018-06-15T16:30:49.143Z,26.10
2018-06-15T16:33:19.892Z,25.80
2018-06-15T16:35:47.343Z,25.80
2018-06-15T16:38:14.780Z,25.80
2018-06-15T16:40:42.197Z,26.00
2018-06-15T16:43:09.676Z,26.10
2018-06-15T16:48:04.600Z,26.10
2018-06-15T16:50:32.014Z,25.90
2018-06-15T16:52:59.507Z,25.90
2018-06-15T16:55:26.959Z,26.10
2018-06-15T16:57:54.389Z,26.10
2018-06-15T17:00:21.882Z,26.10
2018-06-15T17:05:16.967Z,26.20
2018-06-15T17:07:44.425Z,26.20
2018-06-15T17:10:11.891Z,26.00
2018-06-15T17:12:39.318Z,26.00
2018-06-15T17:15:06.775Z,26.00
2018-06-15T17:17:34.865Z,25.70
2018-06-15T17:20:02.330Z,25.90
2018-06-15T17:22:30.382Z,25.80
2018-06-15T17:24:57.895Z,25.90
2018-06-15T17:27:25.480Z,25.70
2018-06-15T17:29:52.899Z,25.70
2018-06-15T17:32:22.585Z,25.70
2018-06-15T17:34:50.108Z,25.70
2018-06-15T17:37:17.531Z,25.70
2018-06-15T17:39:45.040Z,25.60
2018-06-15T17:42:12.572Z,25.40
2018-06-15T17:44:40.134Z,25.50
2018-06-15T17:47:13.271Z,25.30
2018-06-15T17:49:40.805Z,25.20
2018-06-15T17:52:08.251Z,25.20
2018-06-15T17:54:35.799Z,25.10
2018-06-15T17:59:31.020Z,25.20
2018-06-15T18:02:01.051Z,25.10
2018-06-15T18:04:28.685Z,25.10
2018-06-15T18:06:56.160Z,25.10
2018-06-15T18:09:23.663Z,25.00
2018-06-15T18:11:52.351Z,25.00
2018-06-15T18:16:52.468Z,24.90
2018-06-15T18:19:21.230Z,24.80
2018-06-15T18:21:49.135Z,24.80
2018-06-15T18:24:16.889Z,24.80
2018-06-15T18:26:48.905Z,24.80
2018-06-15T18:31:45.094Z,24.70
2018-06-15T18:34:12.844Z,24.60
2018-06-15T18:36:40.523Z,24.50
2018-06-15T18:39:10.530Z,24.40
2018-06-15T18:41:38.047Z,24.40
2018-06-15T18:44:05.855Z,24.40
2018-06-15T18:49:03.070Z,24.10
2018-06-15T18:51:30.760Z,24.20
2018-06-15T18:53:58.318Z,24.10
2018-06-15T18:56:25.807Z,24.20
2018-06-15T18:58:53.425Z,24.20
2018-06-15T19:01:20.925Z,24.20
2018-06-15T19:03:52.954Z,24.20
2018-06-15T19:06:20.496Z,24.10
2018-06-15T19:08:48.017Z,24.20
2018-06-15T19:11:15.496Z,24.10
2018-06-15T19:13:43.018Z,24.10
2018-06-15T19:16:10.473Z,24.00
2018-06-15T19:18:38.170Z,23.90
2018-06-15T19:21:05.746Z,23.90
2018-06-15T19:23:33.575Z,23.90
2018-06-15T19:26:01.081Z,23.90
2018-06-15T19:28:28.559Z,23.80
2018-06-15T19:30:56.020Z,23.70
2018-06-15T19:33:23.527Z,23.70
2018-06-15T19:35:51.144Z,23.60
2018-06-15T19:38:18.742Z,23.50
2018-06-15T19:40:46.250Z,23.50
2018-06-15T19:43:13.860Z,23.40
2018-06-15T19:48:11.460Z,23.20
2018-06-15T19:50:38.967Z,23.30
2018-06-15T19:53:06.881Z,23.20
2018-06-15T19:55:34.630Z,23.10
2018-06-15T19:58:02.199Z,23.10
2018-06-15T20:00:29.762Z,23.00
2018-06-15T20:02:57.508Z,23.00
2018-06-15T20:05:25.101Z,22.90
2018-06-15T20:07:52.807Z,22.90
2018-06-15T20:10:20.275Z,22.90
2018-06-15T20:12:49.191Z,22.90
2018-06-15T20:15:16.727Z,22.90
2018-06-15T20:17:44.201Z,22.80
2018-06-15T20:20:12.563Z,22.80
2018-06-15T20:22:40.094Z,22.80
2018-06-15T20:25:07.650Z,22.70
2018-06-15T20:27:35.256Z,22.70
2018-06-15T20:30:02.978Z,22.60
2018-06-15T20:32:30.502Z,22.30
2018-06-15T20:34:57.934Z,22.30
2018-06-15T20:37:25.439Z,22.20
2018-06-15T20:39:52.888Z,22.10
2018-06-15T20:42:20.356Z,22.10
2018-06-15T20:44:48.130Z,22.00
2018-06-15T20:47:15.675Z,21.90
2018-06-15T20:49:43.315Z,21.90
2018-06-15T20:52:10.792Z,21.80
2018-06-15T20:54:39.811Z,21.70
2018-06-15T20:57:07.330Z,21.70
2018-06-15T20:59:34.846Z,21.60
2018-06-15T21:04:29.971Z,21.50
2018-06-15T21:06:57.657Z,21.50
2018-06-15T21:09:25.115Z,21.50
2018-06-15T21:11:52.647Z,21.50
2018-06-15T21:14:20.071Z,21.40
2018-06-15T21:16:47.544Z,21.30
2018-06-15T21:19:15.120Z,21.30
2018-06-15T21:21:42.703Z,21.30
2018-06-15T21:24:10.196Z,21.30
2018-06-15T21:26:37.620Z,21.30
2018-06-15T21:29:05.145Z,21.20
2018-06-15T21:31:32.688Z,21.20
2018-06-15T21:34:00.287Z,21.10
2018-06-15T21:36:28.087Z,21.10
2018-06-15T21:38:55.591Z,21.00
2018-06-15T21:41:23.099Z,20.90
2018-06-15T21:43:50.627Z,21.00
2018-06-15T21:46:18.144Z,20.90
2018-06-15T21:48:45.654Z,20.80
2018-06-15T21:51:13.224Z,20.80
2018-06-15T21:56:08.061Z,20.70
2018-06-15T21:58:35.470Z,20.70
2018-06-15T22:01:03.086Z,20.70
2018-06-15T22:03:30.531Z,20.70
2018-06-15T22:05:58.045Z,20.60
2018-06-15T22:08:25.522Z,20.60
2018-06-15T22:10:53.316Z,20.60
2018-06-15T22:13:20.835Z,20.60
2018-06-15T22:18:15.808Z,20.50
2018-06-15T22:20:43.322Z,20.50
2018-06-15T22:23:11.778Z,20.50
2018-06-15T22:25:39.256Z,20.50
2018-06-15T22:28:06.809Z,20.50
2018-06-15T22:30:34.276Z,20.50
2018-06-15T22:33:01.893Z,20.50
2018-06-15T22:35:29.385Z,20.50
2018-06-15T22:37:57.020Z,20.50
2018-06-15T22:40:24.469Z,20.40
2018-06-15T22:42:51.936Z,20.40
2018-06-15T22:45:19.403Z,20.30
2018-06-15T22:47:46.940Z,20.30
2018-06-15T22:50:14.393Z,20.40
2018-06-15T22:52:41.874Z,20.50
2018-06-15T22:55:09.407Z,20.40
2018-06-15T22:57:36.989Z,20.50
2018-06-15T23:00:04.744Z,20.60
2018-06-15T23:02:32.511Z,20.50
2018-06-15T23:05:00.100Z,20.60
2018-06-15T23:07:27.535Z,20.70
2018-06-15T23:09:55.377Z,20.70
2018-06-15T23:12:22.984Z,20.70
2018-06-15T23:14:50.465Z,20.80
2018-06-15T23:17:18.089Z,20.80
2018-06-15T23:19:45.663Z,20.90
2018-06-15T23:24:40.625Z,21.00
2018-06-15T23:27:08.175Z,21.00
2018-06-15T23:29:35.864Z,21.10
2018-06-15T23:32:04.525Z,21.00
2018-06-15T23:34:32.030Z,21.00
2018-06-15T23:36:59.663Z,21.00
2018-06-15T23:39:27.155Z,21.00
2018-06-15T23:44:22.171Z,20.90
2018-06-15T23:46:49.753Z,20.90
2018-06-15T23:49:17.297Z,20.80
2018-06-15T23:51:45.530Z,20.70
2018-06-15T23:54:13.076Z,20.70
2018-06-15T23:56:40.483Z,20.60
2018-06-15T23:59:07.963Z,20.60
